Hamedan, Iran
Current Conditions -  °F | °C
As of 4:00 AM on Wednesday 26 Nov 2014 (Local Time) from OICC Reporting Station
Broken Clouds Broken Clouds  
Wind Chill: 43°   Ceiling: 7000
Heat Index: 43°   Visibility: 5mi
Dew Point: 41°   Wind: 0mph
Humidity: 93%   Direction: NA
Pressure: 30"   Gusts: NA
Location:  34.8°N, 48.52°E
Report Text: OICC 260100Z 00000KT 8000 FEW020 FEW030CB SCT035BKN070 06/05 Q1016 A3001
Loading
Personal Weather Stations






























Interactive Weather Map New forecast layout! Learn more

10-Day Weather Forecast

Advertisements
Track Severe Weather on mobile